Time;durP1;ratioP1;P1;durP2;ratioP2;P2;SDS_P1;SDS_P2;PMS_P1;PMS_P2;Temp;Humidity;BMP_temperature;BMP_pressure;BME280_temperature;BME280_humidity;BME280_pressure;Samples;Min_cycle;Max_cycle;Signal;HPM_P1;HPM_P2
2023/11/17 00:03:33;;;;;;;11.23;8.82;;;;;;;6.10;100.00;101610.88;10354492;28;20137;-70
2023/11/17 00:08:34;;;;;;;13.07;9.52;;;;;;;6.11;100.00;101627.84;10354658;28;20034;-70
2023/11/17 00:13:35;;;;;;;14.32;11.25;;;;;;;6.13;100.00;101629.41;10372804;28;20037;-70
2023/11/17 00:18:36;;;;;;;13.00;10.30;;;;;;;6.12;100.00;101635.75;10370297;28;20127;-70
2023/11/17 00:23:39;;;;;;;10.45;9.30;;;;;;;6.12;100.00;101634.91;10369799;28;20121;-70
2023/11/17 00:28:42;;;;;;;13.50;10.13;;;;;;;6.11;100.00;101649.38;10354742;28;20021;-70
2023/11/17 00:33:42;;;;;;;16.17;9.52;;;;;;;6.13;100.00;101664.38;10372246;28;20042;-71
2023/11/17 00:38:43;;;;;;;17.23;10.80;;;;;;;6.14;100.00;101655.28;10369941;28;20135;-70
2023/11/17 00:43:44;;;;;;;12.80;9.15;;;;;;;6.16;100.00;101653.31;10371041;28;20115;-70
2023/11/17 00:48:45;;;;;;;14.98;9.55;;;;;;;6.18;100.00;101656.69;10353762;28;20049;-70
2023/11/17 00:53:45;;;;;;;9.48;8.40;;;;;;;6.18;100.00;101662.06;10353896;28;20444;-71
2023/11/17 00:58:45;;;;;;;12.88;8.55;;;;;;;6.22;100.00;101673.34;10342505;28;20053;-70
2023/11/17 01:03:47;;;;;;;18.25;8.88;;;;;;;6.22;100.00;101676.91;10377720;28;20073;-70
2023/11/17 01:08:48;;;;;;;14.32;9.20;;;;;;;6.26;100.00;101689.06;10380537;28;20037;-70
2023/11/17 01:13:49;;;;;;;12.07;8.90;;;;;;;6.26;100.00;101690.91;10378318;28;20053;-70
2023/11/17 01:18:50;;;;;;;9.45;8.15;;;;;;;6.29;100.00;101696.00;10376851;28;20026;-71
2023/11/17 01:23:50;;;;;;;11.73;8.20;;;;;;;6.32;100.00;101695.69;10378188;28;20492;-70
2023/11/17 01:28:51;;;;;;;11.35;8.57;;;;;;;6.38;100.00;101694.22;10360944;28;20037;-70
2023/11/17 01:33:51;;;;;;;9.98;7.75;;;;;;;6.37;100.00;101698.75;10378896;28;20113;-70
2023/11/17 01:38:54;;;;;;;8.43;7.63;;;;;;;6.32;100.00;101703.75;10377590;28;20065;-70
2023/11/17 01:43:55;;;;;;;8.95;8.05;;;;;;;6.27;100.00;101703.34;10377033;28;20042;-70
2023/11/17 01:48:55;;;;;;;16.30;8.52;;;;;;;6.29;100.00;101706.75;10359716;28;20385;-70
2023/11/17 01:53:56;;;;;;;11.98;7.72;;;;;;;6.28;100.00;101708.56;10378229;28;20042;-71
2023/11/17 01:58:57;;;;;;;12.52;8.27;;;;;;;6.27;100.00;101711.41;10343206;28;20042;-70
2023/11/17 02:03:58;;;;;;;6.95;6.10;;;;;;;6.25;100.00;101716.97;10376438;28;20120;-70
2023/11/17 02:09:13;;;;;;;13.77;7.95;;;;;;;6.30;100.00;101716.50;10341842;28;20029;-71
2023/11/17 02:14:20;;;;;;;6.15;4.97;;;;;;;6.31;100.00;101714.66;10376519;28;20030;-70
2023/11/17 02:19:42;;;;;;;24.15;7.45;;;;;;;6.28;100.00;101700.50;10358499;28;20373;-70
2023/11/17 02:25:23;;;;;;;7.95;6.95;;;;;;;6.27;100.00;101708.72;10374951;28;20124;-70
2023/11/17 02:30:26;;;;;;;6.78;6.07;;;;;;;6.18;100.00;101701.56;10358912;28;20434;-70
2023/11/17 02:35:28;;;;;;;10.63;6.82;;;;;;;6.08;100.00;101701.59;10374150;28;20354;-70
2023/11/17 02:40:31;;;;;;;5.65;5.20;;;;;;;6.02;100.00;101697.66;10374125;28;20041;-70
2023/11/17 02:45:36;;;;;;;7.82;5.63;;;;;;;6.01;100.00;101708.56;10374235;28;20115;-70
2023/11/17 02:50:51;;;;;;;7.93;6.35;;;;;;;6.00;100.00;101698.81;10373658;28;20046;-70
2023/11/17 02:55:52;;;;;;;23.60;5.90;;;;;;;5.99;100.00;101694.41;10375638;28;20050;-70
2023/11/17 03:00:52;;;;;;;13.68;6.55;;;;;;;6.01;100.00;101687.06;10358724;28;20033;-70
2023/11/17 03:05:58;;;;;;;12.00;5.85;;;;;;;6.06;100.00;101695.50;10356983;28;20029;-70
2023/11/17 03:11:02;;;;;;;7.38;3.95;;;;;;;6.11;100.00;101687.00;10375116;28;20033;-70
2023/11/17 03:16:03;;;;;;;6.28;4.22;;;;;;;6.14;100.00;101687.56;10358026;28;20133;-70
2023/11/17 03:21:03;;;;;;;4.28;3.90;;;;;;;6.17;100.00;101691.81;10355789;28;20030;-70
2023/11/17 03:26:04;;;;;;;6.40;4.65;;;;;;;6.17;100.00;101681.88;10373732;28;20082;-70
2023/11/17 03:31:04;;;;;;;6.03;4.32;;;;;;;6.19;100.00;101696.03;10372420;28;20076;-71
2023/11/17 03:36:05;;;;;;;6.60;4.43;;;;;;;6.18;100.00;101694.31;10340232;28;20121;-70
2023/11/17 03:41:06;;;;;;;7.38;4.90;;;;;;;6.19;100.00;101687.97;10373116;28;20042;-70
2023/11/17 03:46:07;;;;;;;11.20;5.20;;;;;;;6.21;100.00;101677.06;10371679;28;20088;-70
2023/11/17 03:51:08;;;;;;;11.18;5.93;;;;;;;6.20;100.00;101686.97;10371543;28;20034;-70
2023/11/17 03:56:08;;;;;;;7.47;5.90;;;;;;;6.23;100.00;101685.81;10371401;28;20054;-70
2023/11/17 04:01:09;;;;;;;10.25;6.75;;;;;;;6.29;100.00;101688.75;10355329;28;20050;-70
2023/11/17 04:06:10;;;;;;;10.13;6.10;;;;;;;6.30;100.00;101689.59;10372351;28;20135;-70
2023/11/17 04:11:13;;;;;;;12.27;5.85;;;;;;;6.33;100.00;101692.00;10355206;28;20100;-70
2023/11/17 04:16:13;;;;;;;6.78;4.95;;;;;;;6.35;100.00;101702.59;10354655;28;20042;-70
2023/11/17 04:21:14;;;;;;;13.38;5.75;;;;;;;6.36;100.00;101707.00;10371996;28;20045;-70
2023/11/17 04:26:15;;;;;;;7.45;5.55;;;;;;;6.32;100.00;101697.50;10371973;28;20424;-70
2023/11/17 04:31:15;;;;;;;9.80;8.02;;;;;;;6.29;100.00;101702.22;10369179;28;20067;-70
2023/11/17 04:36:17;;;;;;;14.77;7.75;;;;;;;6.32;100.00;101710.94;10337253;28;20061;-70
2023/11/17 04:41:19;;;;;;;14.18;8.55;;;;;;;6.32;100.00;101717.22;10372448;28;20038;-70
2023/11/17 04:46:20;;;;;;;11.73;8.85;;;;;;;6.35;100.00;101722.28;10370201;28;20477;-70
2023/11/17 04:51:20;;;;;;;13.73;9.25;;;;;;;6.33;100.00;101712.66;10355042;28;20038;-70
2023/11/17 04:56:21;;;;;;;14.77;9.20;;;;;;;6.37;100.00;101711.38;10353764;28;20085;-70
2023/11/17 05:01:21;;;;;;;22.08;10.73;;;;;;;6.35;100.00;101710.66;10369829;28;20064;-70
2023/11/17 05:06:25;;;;;;;12.52;9.85;;;;;;;6.33;100.00;101718.06;10370444;28;20044;-70
2023/11/17 05:11:29;;;;;;;27.17;10.48;;;;;;;6.34;100.00;101717.88;10370898;28;20050;-70
2023/11/17 05:16:31;;;;;;;14.82;9.85;;;;;;;6.35;100.00;101722.28;10369674;28;20430;-70
2023/11/17 05:21:32;;;;;;;20.02;10.77;;;;;;;6.33;100.00;101723.44;10369353;28;20030;-70
2023/11/17 05:26:33;;;;;;;17.55;11.95;;;;;;;6.28;100.00;101732.78;10369050;28;20465;-70
2023/11/17 05:31:34;;;;;;;15.20;11.48;;;;;;;6.19;100.00;101728.31;10384912;28;20061;-70
2023/11/17 05:36:39;;;;;;;16.98;10.68;;;;;;;6.12;100.00;101742.47;10369946;28;20124;-70
2023/11/17 05:41:41;;;;;;;14.95;10.73;;;;;;;6.04;100.00;101741.38;10369768;28;20029;-70
2023/11/17 05:46:43;;;;;;;17.75;12.30;;;;;;;6.02;100.00;101746.06;10375288;28;20041;-70
2023/11/17 05:51:46;;;;;;;20.65;11.88;;;;;;;6.02;100.00;101753.28;10392163;28;20361;-70
2023/11/17 05:56:47;;;;;;;18.23;12.75;;;;;;;6.02;100.00;101746.06;10375105;28;20046;-71
2023/11/17 06:01:47;;;;;;;18.27;12.27;;;;;;;6.05;100.00;101761.03;10359646;28;20100;-70
2023/11/17 06:06:48;;;;;;;18.20;11.65;;;;;;;6.06;100.00;101765.41;10376087;28;20466;-70
2023/11/17 06:11:48;;;;;;;17.77;12.07;;;;;;;6.10;100.00;101758.78;10376381;28;20046;-70
2023/11/17 06:16:53;;;;;;;18.73;13.48;;;;;;;6.14;100.00;101765.56;10373831;28;20132;-70
2023/11/17 06:21:53;;;;;;;13.82;12.00;;;;;;;6.15;100.00;101764.53;10392061;28;20480;-70
2023/11/17 06:26:54;;;;;;;20.92;12.85;;;;;;;6.16;100.00;101771.63;10358079;28;20041;-71
2023/11/17 06:31:55;;;;;;;14.50;12.20;;;;;;;6.16;100.00;101776.16;10374567;28;20041;-70
2023/11/17 06:36:56;;;;;;;23.98;13.50;;;;;;;6.17;100.00;101773.31;10375261;28;20065;-70
2023/11/17 06:41:56;;;;;;;20.23;12.80;;;;;;;6.20;100.00;101775.72;10374365;28;20034;-70
2023/11/17 06:46:56;;;;;;;14.07;12.35;;;;;;;6.27;100.00;101775.97;10376060;28;20133;-70
2023/11/17 06:51:57;;;;;;;17.17;13.85;;;;;;;6.30;100.00;101778.38;10374073;28;20061;-69
2023/11/17 06:56:57;;;;;;;22.35;13.50;;;;;;;6.32;100.00;101781.78;10372243;28;20442;-70
2023/11/17 07:02:00;;;;;;;28.00;11.80;;;;;;;6.38;100.00;101783.88;10356715;28;20038;-70
2023/11/17 07:07:00;;;;;;;19.98;13.13;;;;;;;6.42;100.00;101801.41;10374185;28;20454;-71
2023/11/17 07:12:02;;;;;;;20.33;13.15;;;;;;;6.45;100.00;101792.19;10389089;28;20069;-70
2023/11/17 07:17:04;;;;;;;25.15;13.27;;;;;;;6.48;100.00;101795.44;10373716;28;20363;-70
2023/11/17 07:22:05;;;;;;;23.08;13.57;;;;;;;6.52;100.00;101798.66;10388012;28;20042;-70
2023/11/17 07:27:07;;;;;;;19.45;12.63;;;;;;;6.62;100.00;101810.22;10372398;28;20429;-69
2023/11/17 07:32:08;;;;;;;16.58;13.85;;;;;;;6.66;100.00;101808.91;10373512;28;20480;-70
2023/11/17 07:37:08;;;;;;;20.92;14.07;;;;;;;6.73;100.00;101809.16;10388624;28;20041;-70
2023/11/17 07:42:09;;;;;;;21.23;14.63;;;;;;;6.80;100.00;101812.97;10370934;28;20033;-70
2023/11/17 07:47:10;;;;;;;30.48;14.85;;;;;;;6.90;100.00;101818.31;10371210;28;20058;-70
2023/11/17 07:52:10;;;;;;;33.75;15.95;;;;;;;6.99;100.00;101810.16;10388732;28;20243;-70
2023/11/17 07:57:11;;;;;;;17.48;15.60;;;;;;;7.13;100.00;101816.84;10371288;28;20420;-70
2023/11/17 08:02:11;;;;;;;39.80;14.95;;;;;;;7.35;100.00;101825.50;10370456;28;20049;-70
2023/11/17 08:07:12;;;;;;;19.55;14.40;;;;;;;7.44;100.00;101829.97;10386967;28;20042;-70
2023/11/17 08:12:13;;;;;;;38.60;14.43;;;;;;;7.40;100.00;101825.88;10354566;28;20132;-70
2023/11/17 08:17:13;;;;;;;18.02;13.48;;;;;;;7.36;100.00;101835.28;10372829;28;20036;-70
2023/11/17 08:22:14;;;;;;;20.48;14.90;;;;;;;7.34;100.00;101835.44;10371300;28;20077;-70
2023/11/17 08:27:14;;;;;;;21.10;15.82;;;;;;;7.22;100.00;101837.50;10369607;28;20125;-70
2023/11/17 08:32:15;;;;;;;26.85;16.95;;;;;;;7.25;100.00;101848.97;10354100;28;20061;-70
2023/11/17 08:37:15;;;;;;;21.58;16.83;;;;;;;7.34;100.00;101848.91;10369607;28;20096;-70
2023/11/17 08:42:15;;;;;;;26.70;15.15;;;;;;;7.42;100.00;101857.06;10354520;28;20034;-70
2023/11/17 08:47:16;;;;;;;22.40;15.27;;;;;;;7.73;100.00;101859.38;10370412;28;20030;-70
2023/11/17 08:52:16;;;;;;;22.52;15.70;;;;;;;8.09;100.00;101862.00;10370061;28;20450;-70
2023/11/17 08:57:17;;;;;;;21.88;15.48;;;;;;;8.32;100.00;101855.06;10353769;28;20050;-70
2023/11/17 09:02:19;;;;;;;19.65;16.02;;;;;;;8.55;100.00;101862.66;10369844;28;20054;-70
2023/11/17 09:07:19;;;;;;;26.65;16.17;;;;;;;8.59;100.00;101873.00;10370416;28;20453;-70
2023/11/17 09:12:19;;;;;;;24.38;15.43;;;;;;;8.55;100.00;101879.72;10370245;28;20050;-70
2023/11/17 09:17:20;;;;;;;18.52;14.35;;;;;;;8.61;100.00;101881.78;10371946;28;20058;-70
2023/11/17 09:22:21;;;;;;;18.77;13.30;;;;;;;8.63;100.00;101883.47;10378121;28;20050;-70
2023/11/17 09:27:22;;;;;;;18.88;14.48;;;;;;;8.63;100.00;101895.09;10378135;28;20377;-70
2023/11/17 09:32:22;;;;;;;16.55;13.15;;;;;;;8.71;100.00;101902.41;10378693;28;20057;-70
2023/11/17 09:37:22;;;;;;;18.67;12.70;;;;;;;9.61;100.00;101902.72;10377122;28;20349;-70
2023/11/17 09:42:25;;;;;;;27.33;14.52;;;;;;;11.22;100.00;101909.94;10376164;28;20041;-71
2023/11/17 09:47:27;;;;;;;15.25;11.30;;;;;;;11.52;100.00;101918.22;10360381;28;20030;-71
2023/11/17 09:52:28;;;;;;;22.35;10.30;;;;;;;12.91;100.00;101915.16;10360826;28;20038;-71
2023/11/17 09:57:29;;;;;;;8.23;7.40;;;;;;;14.02;100.00;101923.16;10375989;28;20098;-71
2023/11/17 10:02:32;;;;;;;18.55;6.68;;;;;;;14.47;100.00;101913.69;10360826;28;20336;-71
2023/11/17 10:07:32;;;;;;;9.32;6.20;;;;;;;13.63;100.00;101922.56;10375530;28;20030;-70
2023/11/17 10:12:34;;;;;;;6.10;5.50;;;;;;;12.34;100.00;101923.91;10342452;28;20061;-70
2023/11/17 10:17:34;;;;;;;11.30;5.60;;;;;;;11.64;100.00;101930.38;10376241;28;20041;-71
2023/11/17 10:22:42;;;;;;;7.40;4.60;;;;;;;11.28;100.00;101935.50;10358242;28;20042;-70
2023/11/17 10:27:44;;;;;;;5.55;4.35;;;;;;;11.06;100.00;101934.41;10360969;28;20504;-70
2023/11/17 10:33:23;;;;;;;6.78;3.90;;;;;;;11.06;100.00;101939.81;10375242;28;20495;-70
2023/11/17 10:38:25;;;;;;;4.50;4.10;;;;;;;10.82;100.00;101938.91;10388391;28;20148;-70
2023/11/17 10:43:26;;;;;;;6.80;2.78;;;;;;;10.86;100.00;101942.94;10376394;28;20030;-71
2023/11/17 10:48:26;;;;;;;4.75;3.65;;;;;;;10.82;100.00;101947.03;10374024;28;20034;-70
2023/11/17 10:53:28;;;;;;;5.47;3.95;;;;;;;11.59;100.00;101941.78;10374640;28;20065;-70
2023/11/17 10:58:29;;;;;;;3.65;3.08;;;;;;;12.88;100.00;101960.91;10356580;28;20050;-70
2023/11/17 11:03:29;;;;;;;2.75;2.55;;;;;;;12.30;100.00;101956.03;10374862;28;20037;-70
2023/11/17 11:08:30;;;;;;;2.38;2.17;;;;;;;12.27;100.00;101953.69;10374192;28;20036;-70
2023/11/17 11:13:31;;;;;;;3.33;2.67;;;;;;;12.28;100.00;101955.38;10373034;28;20397;-70
2023/11/17 11:18:35;;;;;;;3.03;2.72;;;;;;;12.22;100.00;101958.84;10356634;28;20140;-70
2023/11/17 11:23:36;;;;;;;2.08;1.98;;;;;;;12.50;100.00;101961.78;10372562;28;20088;-70
2023/11/17 11:28:37;;;;;;;1.58;1.58;;;;;;;13.88;100.00;101961.16;10371884;28;20025;-71
2023/11/17 11:33:37;;;;;;;6.90;2.72;;;;;;;14.69;100.00;101954.56;10355777;28;20140;-71
2023/11/17 11:38:47;;;;;;;4.95;1.92;;;;;;;14.89;100.00;101961.81;10371247;28;20037;-71
2023/11/17 11:43:49;;;;;;;2.38;2.17;;;;;;;14.01;100.00;101970.47;10388584;28;20037;-70
2023/11/17 11:48:53;;;;;;;1.77;1.67;;;;;;;13.40;100.00;101982.59;10371847;28;20098;-71
2023/11/17 11:53:55;;;;;;;2.13;2.03;;;;;;;13.20;100.00;101967.84;10355487;28;20034;-71
2023/11/17 11:58:56;;;;;;;2.20;2.10;;;;;;;13.11;100.00;101958.09;10338061;28;20045;-71
2023/11/17 12:04:01;;;;;;;3.25;1.77;;;;;;;13.30;100.00;101962.13;10370687;28;20037;-70
2023/11/17 12:09:08;;;;;;;2.22;2.13;;;;;;;13.22;100.00;101974.78;10354338;28;20397;-70
2023/11/17 12:14:08;;;;;;;1.88;1.75;;;;;;;12.54;100.00;101975.88;10371114;28;20030;-70
2023/11/17 12:19:09;;;;;;;3.47;2.05;;;;;;;12.01;100.00;101966.81;10370390;28;20038;-70
2023/11/17 12:24:15;;;;;;;3.83;1.80;;;;;;;11.68;100.00;101979.69;10370436;28;20114;-70
2023/11/17 12:29:31;;;;;;;2.90;2.20;;;;;;;11.51;100.00;101977.06;10371298;28;20041;-70
2023/11/17 12:34:32;;;;;;;2.08;1.88;;;;;;;11.33;100.00;101980.06;10355001;28;20038;-70
2023/11/17 12:39:36;;;;;;;2.17;1.50;;;;;;;11.27;100.00;101991.59;10370143;28;20034;-70
2023/11/17 12:44:36;;;;;;;2.53;1.63;;;;;;;11.18;100.00;102000.78;10369494;28;20054;-70
2023/11/17 12:49:53;;;;;;;1.92;1.83;;;;;;;11.18;100.00;101995.34;10370598;28;20046;-71
2023/11/17 12:55:07;;;;;;;1.80;1.70;;;;;;;11.12;100.00;102004.19;10353329;28;20096;-70
2023/11/17 13:00:21;;;;;;;2.10;1.90;;;;;;;11.03;100.00;101997.09;10371206;28;20034;-70
2023/11/17 13:05:21;;;;;;;2.17;2.03;;;;;;;10.67;100.00;102011.06;10370005;28;20058;-70
2023/11/17 13:10:21;;;;;;;1.60;1.50;;;;;;;10.38;100.00;102020.53;10352868;28;20473;-70
2023/11/17 13:15:22;;;;;;;2.85;2.65;;;;;;;10.37;100.00;102013.44;10337005;28;20046;-70
2023/11/17 13:20:23;;;;;;;2.15;1.95;;;;;;;10.45;100.00;102009.88;10369695;28;20040;-70
2023/11/17 13:25:25;;;;;;;2.10;1.90;;;;;;;10.41;100.00;102022.91;10370358;28;20342;-70
2023/11/17 13:30:26;;;;;;;3.15;1.88;;;;;;;10.46;100.00;102020.56;10368922;28;20441;-70
2023/11/17 13:35:28;;;;;;;3.58;2.63;;;;;;;10.51;100.00;102011.06;10385774;28;20041;-70
2023/11/17 13:40:37;;;;;;;3.22;2.00;;;;;;;10.47;100.00;102011.41;10369350;28;20034;-70
2023/11/17 13:45:38;;;;;;;1.30;1.25;;;;;;;10.35;100.00;102029.00;10370504;28;20042;-70
2023/11/17 13:50:39;;;;;;;4.65;1.45;;;;;;;10.00;100.00;102020.13;10370738;28;20105;-70
2023/11/17 13:55:41;;;;;;;1.05;0.98;;;;;;;9.62;100.00;102026.97;10368816;28;20216;-70
2023/11/17 14:00:44;;;;;;;1.45;1.23;;;;;;;9.41;100.00;102029.22;10353125;28;20081;-70
2023/11/17 14:05:45;;;;;;;1.05;1.05;;;;;;;9.18;100.00;102042.47;10373458;28;20424;-70
2023/11/17 14:10:45;;;;;;;2.35;1.33;;;;;;;9.16;100.00;102047.19;10359188;28;20387;-70
2023/11/17 14:15:48;;;;;;;1.55;1.25;;;;;;;9.18;100.00;102045.16;10377697;28;20065;-70
2023/11/17 14:20:48;;;;;;;1.83;1.73;;;;;;;9.10;100.00;102055.94;10375856;28;20113;-70
2023/11/17 14:25:49;;;;;;;2.97;1.33;;;;;;;8.90;100.00;102053.41;10376026;28;20108;-70
2023/11/17 14:30:50;;;;;;;1.80;1.58;;;;;;;8.77;100.00;102061.09;10375898;28;20057;-70
2023/11/17 14:35:50;;;;;;;2.30;1.98;;;;;;;8.63;100.00;102057.13;10390476;28;20077;-70
2023/11/17 14:40:51;;;;;;;6.10;2.05;;;;;;;8.55;100.00;102062.44;10375340;28;20117;-70
2023/11/17 14:45:51;;;;;;;1.80;1.70;;;;;;;8.45;100.00;102059.81;10375588;28;20056;-70
2023/11/17 14:50:52;;;;;;;1.55;1.45;;;;;;;8.40;100.00;102062.16;10357209;28;20041;-70
2023/11/17 14:55:53;;;;;;;3.03;1.75;;;;;;;8.41;100.00;102077.34;10373233;28;20062;-71
2023/11/17 15:00:53;;;;;;;2.05;1.95;;;;;;;8.50;100.00;102080.97;10356083;28;20081;-71
2023/11/17 15:05:54;;;;;;;2.00;1.77;;;;;;;8.58;100.00;102092.69;10374074;28;20474;-70
2023/11/17 15:10:56;;;;;;;1.75;1.40;;;;;;;8.84;100.00;102097.31;10356569;28;20066;-71
2023/11/17 15:15:57;;;;;;;1.50;1.15;;;;;;;9.06;100.00;102091.38;10373581;28;20034;-71
2023/11/17 15:20:58;;;;;;;2.00;1.85;;;;;;;9.13;100.00;102099.72;10372553;28;20033;-70
2023/11/17 15:25:58;;;;;;;2.08;1.85;;;;;;;9.07;100.00;102103.88;10372474;28;20145;-70
2023/11/17 15:30:59;;;;;;;2.17;1.42;;;;;;;8.92;100.00;102102.75;10372240;28;20092;-71
2023/11/17 15:36:00;;;;;;;4.25;1.23;;;;;;;8.79;100.00;102102.31;10373193;28;20076;-71
2023/11/17 15:41:00;;;;;;;10.95;1.95;;;;;;;8.61;100.00;102099.63;10388148;28;20066;-70
2023/11/17 15:46:00;;;;;;;3.30;2.17;;;;;;;8.53;100.00;102111.19;10372967;28;20137;-70
2023/11/17 15:51:03;;;;;;;3.03;2.72;;;;;;;8.51;100.00;102124.00;10355121;28;20092;-70
2023/11/17 15:56:07;;;;;;;1.95;1.85;;;;;;;8.53;100.00;102123.84;10370645;28;20050;-70
2023/11/17 16:01:11;;;;;;;3.40;3.10;;;;;;;8.56;100.00;102121.69;10355415;28;20034;-70
2023/11/17 16:06:12;;;;;;;3.67;2.95;;;;;;;8.59;100.00;102129.50;10354650;28;20037;-69
2023/11/17 16:11:18;;;;;;;3.88;2.65;;;;;;;8.60;100.00;102130.34;10371027;28;20033;-70
2023/11/17 16:16:19;;;;;;;3.45;2.85;;;;;;;8.64;100.00;102128.16;10356528;28;20059;-69
2023/11/17 16:21:20;;;;;;;2.42;2.22;;;;;;;8.65;100.00;102128.03;10372010;28;20415;-71
2023/11/17 16:26:20;;;;;;;3.97;3.25;;;;;;;8.61;100.00;102129.31;10354421;28;20481;-70
2023/11/17 16:31:21;;;;;;;3.75;2.78;;;;;;;8.56;100.00;102137.91;10371797;28;20078;-70
2023/11/17 16:36:23;;;;;;;4.43;2.72;;;;;;;8.57;100.00;102138.75;10355471;28;20212;-70
2023/11/17 16:41:24;;;;;;;3.72;3.15;;;;;;;8.56;100.00;102137.91;10371791;28;20094;-70
2023/11/17 16:46:24;;;;;;;6.40;3.05;;;;;;;8.42;100.00;102133.00;10370110;28;20467;-70
2023/11/17 16:51:25;;;;;;;3.42;3.20;;;;;;;8.35;100.00;102148.09;10372198;28;20053;-70
2023/11/17 16:56:25;;;;;;;3.63;3.10;;;;;;;8.33;100.00;102147.41;10386664;28;20077;-70
2023/11/17 17:01:27;;;;;;;7.38;4.03;;;;;;;8.35;100.00;102148.94;10370036;28;20034;-70
2023/11/17 17:06:27;;;;;;;5.82;4.70;;;;;;;8.39;100.00;102154.91;10369345;28;20041;-70
2023/11/17 17:11:28;;;;;;;4.72;4.32;;;;;;;8.45;100.00;102150.75;10352510;28;20508;-70
2023/11/17 17:16:30;;;;;;;5.75;4.75;;;;;;;8.46;100.00;102163.28;10354252;28;20169;-70
2023/11/17 17:21:31;;;;;;;8.57;4.57;;;;;;;8.53;100.00;102164.34;10369581;28;20052;-70
2023/11/17 17:26:33;;;;;;;11.88;5.47;;;;;;;8.55;100.00;102171.31;10370745;28;20058;-70
2023/11/17 17:31:33;;;;;;;8.50;5.55;;;;;;;8.53;100.00;102178.69;10369739;28;20080;-70
2023/11/17 17:36:34;;;;;;;7.20;4.78;;;;;;;8.52;100.00;102190.50;10369922;28;20068;-70
2023/11/17 17:41:34;;;;;;;8.60;5.20;;;;;;;8.53;100.00;102185.94;10376302;28;20474;-70
2023/11/17 17:46:34;;;;;;;6.88;4.70;;;;;;;8.50;100.00;102199.75;10378070;28;20065;-70
2023/11/17 17:51:35;;;;;;;8.13;7.03;;;;;;;8.52;100.00;102209.41;10359228;28;20046;-70
2023/11/17 17:56:38;;;;;;;8.10;6.03;;;;;;;8.55;100.00;102203.69;10375682;28;20094;-70
2023/11/17 18:01:40;;;;;;;9.10;6.82;;;;;;;8.56;100.00;102199.16;10391812;28;20482;-70
2023/11/17 18:06:42;;;;;;;14.35;7.80;;;;;;;8.50;100.00;102200.59;10392333;28;20030;-70
2023/11/17 18:11:42;;;;;;;7.60;6.60;;;;;;;8.52;100.00;102200.44;10377926;28;20037;-70
2023/11/17 18:16:43;;;;;;;12.23;7.80;;;;;;;8.51;100.00;102215.78;10375984;28;20055;-70
2023/11/17 18:21:43;;;;;;;1.85;1.85;;;;;;;8.53;100.00;102213.78;10391027;28;20173;-70
2023/11/17 18:26:54;;;;;;;0.50;0.50;;;;;;;8.55;100.00;102205.53;10358119;28;20121;-73
2023/11/17 18:31:54;;;;;;;0.68;0.68;;;;;;;8.51;100.00;102210.38;10374353;28;20129;-73
2023/11/17 18:36:55;;;;;;;0.85;0.85;;;;;;;8.50;100.00;102215.94;10373829;28;20034;-72
2023/11/17 18:42:02;;;;;;;0.40;0.40;;;;;;;8.48;100.00;102216.09;10373756;28;20034;-72
2023/11/17 18:47:03;;;;;;;0.65;0.65;;;;;;;8.45;100.00;102213.69;10373398;28;20052;-70
2023/11/17 18:52:03;;;;;;;0.70;0.70;;;;;;;8.32;100.00;102215.88;10372041;28;20133;-71
2023/11/17 18:57:04;;;;;;;0.45;0.45;;;;;;;8.19;100.00;102226.16;10374239;28;20053;-71
2023/11/17 19:02:06;;;;;;;0.70;0.70;;;;;;;8.11;100.00;102237.72;10357044;28;20124;-69
2023/11/17 19:07:08;;;;;;;0.50;0.50;;;;;;;8.16;100.00;102246.19;10373953;28;20118;-70
2023/11/17 19:12:10;;;;;;;1.20;1.20;;;;;;;8.26;100.00;102248.84;10356598;28;20087;-70
2023/11/17 19:17:11;;;;;;;1.27;1.27;;;;;;;8.33;100.00;102240.03;10355881;28;20040;-71
2023/11/17 19:22:11;;;;;;;0.57;0.57;;;;;;;8.38;100.00;102237.75;10372375;28;20133;-71
2023/11/17 19:27:14;;;;;;;2.30;2.20;;;;;;;8.38;100.00;102259.34;10371456;28;20080;-71
2023/11/17 19:32:17;;;;;;;1.52;1.50;;;;;;;8.35;100.00;102259.59;10372437;28;20030;-73
2023/11/17 19:37:18;;;;;;;0.50;0.50;;;;;;;8.31;100.00;102263.59;10371221;28;20022;-70
2023/11/17 19:42:18;;;;;;;0.68;0.68;;;;;;;8.19;100.00;102254.00;10372790;28;20038;-70
2023/11/17 19:47:19;;;;;;;0.93;0.85;;;;;;;7.88;100.00;102250.69;10372257;28;20121;-70
2023/11/17 19:52:19;;;;;;;1.15;0.77;;;;;;;7.58;100.00;102263.41;10372173;28;20092;-71
2023/11/17 19:57:20;;;;;;;2.35;2.25;;;;;;;7.36;100.00;102277.19;10372198;28;20480;-70
2023/11/17 20:02:21;;;;;;;8.27;6.55;;;;;;;7.11;100.00;102268.69;10372839;28;20046;-70
2023/11/17 20:07:22;;;;;;;5.05;2.22;;;;;;;7.03;100.00;102270.41;10372958;28;20046;-70
2023/11/17 20:12:22;;;;;;;4.70;2.28;;;;;;;6.88;100.00;102273.47;10370004;28;20109;-71
2023/11/17 20:17:23;;;;;;;0.68;0.68;;;;;;;6.86;100.00;102278.19;10371453;28;20034;-71
2023/11/17 20:22:25;;;;;;;0.65;0.65;;;;;;;6.84;100.00;102285.53;10372653;28;20121;-70
2023/11/17 20:27:26;;;;;;;0.73;0.73;;;;;;;6.66;100.00;102281.81;10354193;28;20038;-70
2023/11/17 20:32:27;;;;;;;0.63;0.63;;;;;;;6.69;100.00;102274.28;10370247;28;20038;-71
2023/11/17 20:37:27;;;;;;;2.00;1.90;;;;;;;6.71;100.00;102266.94;10370669;28;20034;-70
2023/11/17 20:42:27;;;;;;;5.47;4.60;;;;;;;6.59;100.00;102261.81;10353741;28;20566;-71
2023/11/17 20:47:31;;;;;;;1.70;1.45;;;;;;;6.63;100.00;102265.94;10353062;28;20115;-71
2023/11/17 20:52:32;;;;;;;1.00;1.00;;;;;;;6.54;100.00;102256.88;10369032;28;20438;-70
2023/11/17 20:57:32;;;;;;;3.25;2.42;;;;;;;6.58;100.00;102270.88;10353158;28;20045;-70
2023/11/17 21:02:33;;;;;;;1.60;1.58;;;;;;;6.58;100.00;102265.50;10369855;28;20042;-71
2023/11/17 21:07:33;;;;;;;3.30;2.72;;;;;;;6.59;100.00;102278.81;10352955;28;20145;-70
2023/11/17 21:12:34;;;;;;;1.35;1.35;;;;;;;6.53;100.00;102282.91;10370762;28;20038;-70
2023/11/17 21:17:34;;;;;;;1.70;1.67;;;;;;;6.48;100.00;102293.25;10360456;28;20426;-71
2023/11/17 21:22:35;;;;;;;1.42;1.42;;;;;;;6.50;100.00;102293.09;10393491;28;20069;-70
2023/11/17 21:27:36;;;;;;;0.77;0.77;;;;;;;6.55;100.00;102306.16;10377963;28;20088;-71
2023/11/17 21:32:37;;;;;;;1.13;1.02;;;;;;;6.58;100.00;102293.25;10361152;28;20124;-69
2023/11/17 21:37:38;;;;;;;7.32;3.60;;;;;;;6.69;100.00;102298.53;10376639;28;20037;-72
2023/11/17 21:42:43;;;;;;;0.40;0.40;;;;;;;6.75;100.00;102300.66;10393087;28;20481;-72
2023/11/17 21:47:50;;;;;;;0.50;0.50;;;;;;;6.85;100.00;102299.84;10344674;28;20110;-71
2023/11/17 21:52:50;;;;;;;2.00;1.90;;;;;;;6.90;100.00;102297.59;10360523;28;20137;-71
2023/11/17 21:57:51;;;;;;;1.45;1.45;;;;;;;6.95;100.00;102293.47;10375261;28;20098;-71
2023/11/17 22:02:51;;;;;;;0.70;0.70;;;;;;;7.04;100.00;102312.50;10375087;28;20123;-70
2023/11/17 22:07:52;;;;;;;0.70;0.70;;;;;;;7.12;100.00;102318.03;10376643;28;20112;-71
2023/11/17 22:12:52;;;;;;;0.55;0.55;;;;;;;7.14;100.00;102311.50;10376975;28;20112;-70
2023/11/17 22:17:53;;;;;;;0.82;0.82;;;;;;;7.12;100.00;102316.19;10359430;28;20030;-70
2023/11/17 22:22:54;;;;;;;1.17;1.17;;;;;;;7.15;100.00;102312.38;10359031;28;20500;-71
2023/11/17 22:27:55;;;;;;;0.50;0.50;;;;;;;7.14;100.00;102305.25;10375362;28;20489;-70
2023/11/17 22:32:56;;;;;;;0.80;0.80;;;;;;;7.02;100.00;102296.47;10376787;28;20038;-71
2023/11/17 22:37:56;;;;;;;1.00;1.00;;;;;;;7.02;100.00;102299.19;10375814;28;20068;-70
2023/11/17 22:42:57;;;;;;;0.98;0.98;;;;;;;6.95;100.00;102292.63;10375981;28;20120;-71
2023/11/17 22:47:57;;;;;;;1.48;1.38;;;;;;;6.89;100.00;102285.09;10375979;28;20058;-71
2023/11/17 22:52:58;;;;;;;0.85;0.85;;;;;;;6.82;100.00;102287.50;10359594;28;20528;-71
2023/11/17 22:57:58;;;;;;;1.70;1.60;;;;;;;6.85;100.00;102289.06;10376161;28;20077;-71